Paganini — V2CL8 — position and weather

sailwx.info

Track history (hours):
 
Tides and Currents Weather Stations Pressure Air Temp Water Temp Dewpoint Dewpoint Depression Visibility Wind Speed Wind Dir Waves Ship Positions

Paganini

Last reported at 2017-Aug-21 11:54 UTC. Time now 2017-Aug-22 13:05 UTC.
Position N 35°60' W 005°12'.

Length 90 m; draft 5.1 m.

Type: Cargo ship. MMSI: 305040000.

Date/timePositionNaut miles runAvg speedWind from/ knotsBaromVisibWave heightAir tempDewpointWater temp
2017-Aug-21 11:54N 35°60' W 005°12'4 9.4
2017-Aug-21 11:31N 35°59' W 005°16'4 8.8
2017-Aug-21 11:01N 35°58' W 005°21'5 9.2
2017-Aug-21 10:31N 35°57' W 005°27'181 8.0
2017-Aug-20 12:00N 36°30' W 009°07'5 9.1
2017-Aug-20 11:29N 36°31' W 009°13'15 8.9
2017-Aug-20 09:48N 36°41' W 009°27'3 9.4
2017-Aug-20 09:26N 36°44' W 009°30'4 9.2
2017-Aug-20 09:00N 36°46' W 009°34'22 9.3
2017-Aug-20 06:39N 37°08' W 009°39'2 9.5
2017-Aug-20 06:29N 37°09' W 009°40'5 9.4
2017-Aug-20 06:00N 37°14' W 009°41'5 9.1
2017-Aug-20 05:29N 37°18' W 009°42'4 9.2
2017-Aug-20 04:59N 37°23' W 009°43'4 8.8
2017-Aug-20 04:31N 37°27' W 009°45'4 8.8
2017-Aug-20 04:01N 37°31' W 009°46'5 9.1
2017-Aug-20 03:30N 37°36' W 009°47'5 9.2
2017-Aug-20 03:00N 37°40' W 009°48'4 8.7
2017-Aug-20 02:31N 37°44' W 009°50'4 8.5
2017-Aug-20 02:00N 37°49' W 009°51'4 8.5
2017-Aug-20 01:31N 37°53' W 009°52'4 8.7
2017-Aug-20 01:01N 37°57' W 009°53'4 8.9
2017-Aug-20 00:30N 38°01' W 009°54'4 8.7
2017-Aug-20 00:01N 38°06' W 009°55'4 8.7
2017-Aug-19 23:30N 38°10' W 009°56'4 8.6
2017-Aug-19 23:01N 38°14' W 009°57'4 8.7
2017-Aug-19 22:30N 38°18' W 009°59'4 8.7
2017-Aug-19 22:00N 38°23' W 009°60'4 8.7
2017-Aug-19 21:31N 38°27' W 010°01'5 9.1
2017-Aug-19 21:00N 38°31' W 010°02'5 9.4
2017-Aug-19 20:30N 38°36' W 010°03'5 9.3
2017-Aug-19 20:01N 38°40' W 010°05'5 9.4
2017-Aug-19 19:30N 38°45' W 010°05'5 9.3
2017-Aug-19 19:00N 38°50' W 010°05'5 9.4
2017-Aug-19 18:31N 38°54' W 010°04'5 9.5
2017-Aug-19 18:01N 38°59' W 010°03'5 9.7
2017-Aug-19 17:30N 39°04' W 010°01'5 9.7
2017-Aug-19 17:01N 39°08' W 009°60'5 9.7
2017-Aug-19 16:30N 39°13' W 009°58'5 9.3
2017-Aug-19 16:01N 39°18' W 009°57'6 9.3
2017-Aug-19 15:19N 39°24' W 009°55'3 9.2
2017-Aug-19 15:00N 39°27' W 009°54'9 8.9
2017-Aug-19 13:59N 39°36' W 009°51'4 8.9
2017-Aug-19 13:30N 39°40' W 009°50'47 9.1
2017-Aug-19 08:21N 40°25' W 009°35'3 9.2
2017-Aug-19 08:00N 40°28' W 009°34'5 9.5
2017-Aug-19 07:30N 40°33' W 009°32'5 9.3
2017-Aug-19 06:59N 40°37' W 009°31'6 9.0
2017-Aug-19 06:20N 40°43' W 009°29'3 9.2
2017-Aug-19 06:00N 40°46' W 009°28'  
2017-Aug-13 07:00N 43°36' W 005°57'4 9.0
2017-Aug-13 06:30N 43°38' W 006°03'4 7.3
2017-Aug-13 06:00N 43°39' W 006°08'163 7.8
2017-Aug-12 08:58N 43°00' W 009°46'18 8.7
2017-Aug-12 06:54N 42°43' W 009°41'4 8.4
2017-Aug-12 06:29N 42°39' W 009°39'4 8.2
2017-Aug-12 06:00N 42°36' W 009°37'5 8.5
2017-Aug-12 05:29N 42°32' W 009°34'8 8.8
2017-Aug-12 04:33N 42°24' W 009°29'0 9.4
2017-Aug-12 04:30N 42°24' W 009°29'11 9.4
2017-Aug-12 03:21N 42°14' W 009°23'3 9.3
2017-Aug-12 02:59N 42°11' W 009°22'7 9.0
2017-Aug-12 02:09N 42°04' W 009°17'2 8.8
2017-Aug-12 01:55N 42°02' W 009°16'7 8.7
2017-Aug-12 01:07N 41°56' W 009°12'2 8.8
2017-Aug-12 00:53N 41°54' W 009°11'12 8.5
2017-Aug-11 23:28N 41°43' W 009°05'6 8.4
2017-Aug-11 22:44N 41°37' W 009°01'2 8.4
2017-Aug-11 22:29N 41°35' W 009°00'4 8.6
2017-Aug-11 22:00N 41°32' W 008°58'4 8.6
2017-Aug-11 21:30N 41°28' W 008°56'4 8.9
2017-Aug-11 21:00N 41°24' W 008°53'5 9.2
2017-Aug-11 20:30N 41°19' W 008°51'5 9.4
2017-Aug-11 20:00N 41°15' W 008°48'5 9.3
2017-Aug-11 19:30N 41°11' W 008°45'  
Track history (hours):
 
Tides and Currents Weather Stations Pressure Air Temp Water Temp Dewpoint Dewpoint Depression Visibility Wind Speed Wind Dir Waves Ship Positions

Paganini

Last reported at 2017-Aug-21 11:54 UTC. Time now 2017-Aug-22 13:05 UTC.
Position N 35°60' W 005°12'.

Length 90 m; draft 5.1 m.

Type: Cargo ship. MMSI: 305040000.

Date/timePositionNaut miles runAvg speedWind from/ knotsBaromVisibWave heightAir tempDewpointWater temp
2017-Aug-21 11:54N 35°60' W 005°12'4 9.4
2017-Aug-21 11:31N 35°59' W 005°16'4 8.8
2017-Aug-21 11:01N 35°58' W 005°21'5 9.2
2017-Aug-21 10:31N 35°57' W 005°27'181 8.0
2017-Aug-20 12:00N 36°30' W 009°07'5 9.1
2017-Aug-20 11:29N 36°31' W 009°13'15 8.9
2017-Aug-20 09:48N 36°41' W 009°27'3 9.4
2017-Aug-20 09:26N 36°44' W 009°30'4 9.2
2017-Aug-20 09:00N 36°46' W 009°34'22 9.3
2017-Aug-20 06:39N 37°08' W 009°39'2 9.5
2017-Aug-20 06:29N 37°09' W 009°40'5 9.4
2017-Aug-20 06:00N 37°14' W 009°41'5 9.1
2017-Aug-20 05:29N 37°18' W 009°42'4 9.2
2017-Aug-20 04:59N 37°23' W 009°43'4 8.8
2017-Aug-20 04:31N 37°27' W 009°45'4 8.8
2017-Aug-20 04:01N 37°31' W 009°46'5 9.1
2017-Aug-20 03:30N 37°36' W 009°47'5 9.2
2017-Aug-20 03:00N 37°40' W 009°48'4 8.7
2017-Aug-20 02:31N 37°44' W 009°50'4 8.5
2017-Aug-20 02:00N 37°49' W 009°51'4 8.5
2017-Aug-20 01:31N 37°53' W 009°52'4 8.7
2017-Aug-20 01:01N 37°57' W 009°53'4 8.9
2017-Aug-20 00:30N 38°01' W 009°54'4 8.7
2017-Aug-20 00:01N 38°06' W 009°55'4 8.7
2017-Aug-19 23:30N 38°10' W 009°56'4 8.6
2017-Aug-19 23:01N 38°14' W 009°57'4 8.7
2017-Aug-19 22:30N 38°18' W 009°59'4 8.7
2017-Aug-19 22:00N 38°23' W 009°60'4 8.7
2017-Aug-19 21:31N 38°27' W 010°01'5 9.1
2017-Aug-19 21:00N 38°31' W 010°02'5 9.4
2017-Aug-19 20:30N 38°36' W 010°03'5 9.3
2017-Aug-19 20:01N 38°40' W 010°05'5 9.4
2017-Aug-19 19:30N 38°45' W 010°05'5 9.3
2017-Aug-19 19:00N 38°50' W 010°05'5 9.4
2017-Aug-19 18:31N 38°54' W 010°04'5 9.5
2017-Aug-19 18:01N 38°59' W 010°03'5 9.7
2017-Aug-19 17:30N 39°04' W 010°01'5 9.7
2017-Aug-19 17:01N 39°08' W 009°60'5 9.7
2017-Aug-19 16:30N 39°13' W 009°58'5 9.3
2017-Aug-19 16:01N 39°18' W 009°57'6 9.3
2017-Aug-19 15:19N 39°24' W 009°55'3 9.2
2017-Aug-19 15:00N 39°27' W 009°54'9 8.9
2017-Aug-19 13:59N 39°36' W 009°51'4 8.9
2017-Aug-19 13:30N 39°40' W 009°50'47 9.1
2017-Aug-19 08:21N 40°25' W 009°35'3 9.2
2017-Aug-19 08:00N 40°28' W 009°34'5 9.5
2017-Aug-19 07:30N 40°33' W 009°32'5 9.3
2017-Aug-19 06:59N 40°37' W 009°31'6 9.0
2017-Aug-19 06:20N 40°43' W 009°29'3 9.2
2017-Aug-19 06:00N 40°46' W 009°28'  
2017-Aug-13 07:00N 43°36' W 005°57'4 9.0
2017-Aug-13 06:30N 43°38' W 006°03'4 7.3
2017-Aug-13 06:00N 43°39' W 006°08'163 7.8
2017-Aug-12 08:58N 43°00' W 009°46'18 8.7
2017-Aug-12 06:54N 42°43' W 009°41'4 8.4
2017-Aug-12 06:29N 42°39' W 009°39'4 8.2
2017-Aug-12 06:00N 42°36' W 009°37'5 8.5
2017-Aug-12 05:29N 42°32' W 009°34'8 8.8
2017-Aug-12 04:33N 42°24' W 009°29'0 9.4
2017-Aug-12 04:30N 42°24' W 009°29'11 9.4
2017-Aug-12 03:21N 42°14' W 009°23'3 9.3
2017-Aug-12 02:59N 42°11' W 009°22'7 9.0
2017-Aug-12 02:09N 42°04' W 009°17'2 8.8
2017-Aug-12 01:55N 42°02' W 009°16'7 8.7
2017-Aug-12 01:07N 41°56' W 009°12'2 8.8
2017-Aug-12 00:53N 41°54' W 009°11'12 8.5
2017-Aug-11 23:28N 41°43' W 009°05'6 8.4
2017-Aug-11 22:44N 41°37' W 009°01'2 8.4
2017-Aug-11 22:29N 41°35' W 009°00'4 8.6
2017-Aug-11 22:00N 41°32' W 008°58'4 8.6
2017-Aug-11 21:30N 41°28' W 008°56'4 8.9
2017-Aug-11 21:00N 41°24' W 008°53'5 9.2
2017-Aug-11 20:30N 41°19' W 008°51'5 9.4
2017-Aug-11 20:00N 41°15' W 008°48'5 9.3
2017-Aug-11 19:30N 41°11' W 008°45'  

Dump ship's entire track history